sensor_id;sensor_type;location;lat;lon;timestamp;P1;durP1;ratioP1;P2;durP2;ratioP2
76194;SDS011;64964;48.694;21.206;2022-12-10T00:02:02;4.17;;;3.00;;
76194;SDS011;64964;48.694;21.206;2022-12-10T00:04:27;4.33;;;3.00;;
76194;SDS011;64964;48.694;21.206;2022-12-10T00:06:53;4.78;;;3.28;;
76194;SDS011;64964;48.694;21.206;2022-12-10T00:09:19;11.70;;;7.63;;
76194;SDS011;64964;48.694;21.206;2022-12-10T00:11:45;7.03;;;4.60;;
76194;SDS011;64964;48.694;21.206;2022-12-10T00:14:11;11.00;;;5.80;;
76194;SDS011;64964;48.694;21.206;2022-12-10T00:16:38;7.07;;;4.50;;
76194;SDS011;64964;48.694;21.206;2022-12-10T00:19:03;5.77;;;4.03;;
76194;SDS011;64964;48.694;21.206;2022-12-10T00:21:30;5.82;;;4.35;;
76194;SDS011;64964;48.694;21.206;2022-12-10T00:23:58;5.35;;;3.45;;
76194;SDS011;64964;48.694;21.206;2022-12-10T00:26:25;4.55;;;3.20;;
76194;SDS011;64964;48.694;21.206;2022-12-10T00:28:52;4.32;;;3.13;;
76194;SDS011;64964;48.694;21.206;2022-12-10T00:31:20;4.57;;;3.10;;
76194;SDS011;64964;48.694;21.206;2022-12-10T00:33:50;26.58;;;17.50;;
76194;SDS011;64964;48.694;21.206;2022-12-10T00:36:20;15.10;;;9.00;;
76194;SDS011;64964;48.694;21.206;2022-12-10T00:38:48;5.50;;;3.42;;
76194;SDS011;64964;48.694;21.206;2022-12-10T00:41:14;5.03;;;3.28;;
76194;SDS011;64964;48.694;21.206;2022-12-10T00:43:41;4.33;;;2.93;;
76194;SDS011;64964;48.694;21.206;2022-12-10T00:46:07;4.38;;;3.33;;
76194;SDS011;64964;48.694;21.206;2022-12-10T00:48:33;4.95;;;2.83;;
76194;SDS011;64964;48.694;21.206;2022-12-10T00:51:00;4.47;;;3.00;;
76194;SDS011;64964;48.694;21.206;2022-12-10T00:53:28;5.32;;;3.13;;
76194;SDS011;64964;48.694;21.206;2022-12-10T00:55:55;4.38;;;2.95;;
76194;SDS011;64964;48.694;21.206;2022-12-10T00:58:21;4.30;;;3.15;;
76194;SDS011;64964;48.694;21.206;2022-12-10T01:00:47;4.97;;;3.47;;
76194;SDS011;64964;48.694;21.206;2022-12-10T01:03:13;4.25;;;3.30;;
76194;SDS011;64964;48.694;21.206;2022-12-10T01:05:39;4.00;;;2.92;;
76194;SDS011;64964;48.694;21.206;2022-12-10T01:08:04;6.03;;;3.50;;
76194;SDS011;64964;48.694;21.206;2022-12-10T01:10:29;7.30;;;4.00;;
76194;SDS011;64964;48.694;21.206;2022-12-10T01:12:55;6.78;;;3.80;;
76194;SDS011;64964;48.694;21.206;2022-12-10T01:15:20;5.37;;;3.50;;
76194;SDS011;64964;48.694;21.206;2022-12-10T01:17:46;4.83;;;3.10;;
76194;SDS011;64964;48.694;21.206;2022-12-10T01:20:11;4.00;;;2.90;;
76194;SDS011;64964;48.694;21.206;2022-12-10T01:22:37;4.60;;;3.13;;
76194;SDS011;64964;48.694;21.206;2022-12-10T01:25:02;3.47;;;2.80;;
76194;SDS011;64964;48.694;21.206;2022-12-10T01:27:28;3.50;;;2.73;;
76194;SDS011;64964;48.694;21.206;2022-12-10T01:29:53;5.23;;;3.10;;
76194;SDS011;64964;48.694;21.206;2022-12-10T01:32:18;4.57;;;2.90;;
76194;SDS011;64964;48.694;21.206;2022-12-10T01:34:44;4.17;;;2.80;;
76194;SDS011;64964;48.694;21.206;2022-12-10T01:37:09;4.33;;;2.87;;
76194;SDS011;64964;48.694;21.206;2022-12-10T01:39:35;4.43;;;2.92;;
76194;SDS011;64964;48.694;21.206;2022-12-10T01:42:01;5.93;;;3.17;;
76194;SDS011;64964;48.694;21.206;2022-12-10T01:46:52;5.03;;;2.80;;
76194;SDS011;64964;48.694;21.206;2022-12-10T01:49:23;5.40;;;3.20;;
76194;SDS011;64964;48.694;21.206;2022-12-10T01:51:57;4.30;;;2.88;;
76194;SDS011;64964;48.694;21.206;2022-12-10T01:54:27;4.80;;;3.07;;
76194;SDS011;64964;48.694;21.206;2022-12-10T01:56:59;5.10;;;3.13;;
76194;SDS011;64964;48.694;21.206;2022-12-10T01:59:33;5.60;;;3.00;;
76194;SDS011;64964;48.694;21.206;2022-12-10T02:12:53;5.78;;;3.25;;
76194;SDS011;64964;48.694;21.206;2022-12-10T02:15:52;5.55;;;3.35;;
76194;SDS011;64964;48.694;21.206;2022-12-10T02:18:35;4.93;;;3.30;;
76194;SDS011;64964;48.694;21.206;2022-12-10T02:21:13;5.80;;;3.07;;
76194;SDS011;64964;48.694;21.206;2022-12-10T02:23:55;6.30;;;3.80;;
76194;SDS011;64964;48.694;21.206;2022-12-10T02:31:39;5.78;;;3.88;;
76194;SDS011;64964;48.694;21.206;2022-12-10T02:34:08;6.00;;;3.97;;
76194;SDS011;64964;48.694;21.206;2022-12-10T02:36:37;5.38;;;3.65;;
76194;SDS011;64964;48.694;21.206;2022-12-10T02:39:05;5.43;;;3.80;;
76194;SDS011;64964;48.694;21.206;2022-12-10T02:41:37;5.38;;;3.60;;
76194;SDS011;64964;48.694;21.206;2022-12-10T02:44:07;5.65;;;3.70;;
76194;SDS011;64964;48.694;21.206;2022-12-10T02:46:36;7.23;;;3.87;;
76194;SDS011;64964;48.694;21.206;2022-12-10T02:49:03;6.13;;;3.90;;
76194;SDS011;64964;48.694;21.206;2022-12-10T02:51:31;6.13;;;3.88;;
76194;SDS011;64964;48.694;21.206;2022-12-10T02:54:04;7.93;;;3.60;;
76194;SDS011;64964;48.694;21.206;2022-12-10T02:56:36;8.85;;;4.30;;
76194;SDS011;64964;48.694;21.206;2022-12-10T03:02:06;6.40;;;4.15;;
76194;SDS011;64964;48.694;21.206;2022-12-10T03:04:44;6.50;;;3.90;;
76194;SDS011;64964;48.694;21.206;2022-12-10T03:07:25;5.32;;;3.67;;
76194;SDS011;64964;48.694;21.206;2022-12-10T03:10:01;6.50;;;4.00;;
76194;SDS011;64964;48.694;21.206;2022-12-10T03:12:36;13.18;;;4.55;;
76194;SDS011;64964;48.694;21.206;2022-12-10T03:15:08;9.50;;;4.18;;
76194;SDS011;64964;48.694;21.206;2022-12-10T03:17:35;8.43;;;4.03;;
76194;SDS011;64964;48.694;21.206;2022-12-10T03:20:02;6.80;;;4.00;;
76194;SDS011;64964;48.694;21.206;2022-12-10T03:22:29;7.55;;;4.03;;
76194;SDS011;64964;48.694;21.206;2022-12-10T03:24:57;6.30;;;3.70;;
76194;SDS011;64964;48.694;21.206;2022-12-10T03:27:23;7.13;;;4.50;;
76194;SDS011;64964;48.694;21.206;2022-12-10T03:29:53;7.37;;;4.47;;
76194;SDS011;64964;48.694;21.206;2022-12-10T03:32:21;7.53;;;4.63;;
76194;SDS011;64964;48.694;21.206;2022-12-10T03:34:50;6.05;;;4.05;;
76194;SDS011;64964;48.694;21.206;2022-12-10T03:37:18;6.65;;;4.00;;
76194;SDS011;64964;48.694;21.206;2022-12-10T03:39:44;8.13;;;4.43;;
76194;SDS011;64964;48.694;21.206;2022-12-10T03:42:10;8.68;;;4.57;;
76194;SDS011;64964;48.694;21.206;2022-12-10T03:44:36;7.73;;;4.87;;
76194;SDS011;64964;48.694;21.206;2022-12-10T03:47:04;7.93;;;4.53;;
76194;SDS011;64964;48.694;21.206;2022-12-10T03:49:30;10.70;;;4.80;;
76194;SDS011;64964;48.694;21.206;2022-12-10T03:51:56;10.23;;;5.20;;
76194;SDS011;64964;48.694;21.206;2022-12-10T03:54:22;8.63;;;5.10;;
76194;SDS011;64964;48.694;21.206;2022-12-10T03:56:47;7.77;;;5.40;;
76194;SDS011;64964;48.694;21.206;2022-12-10T03:59:13;14.77;;;5.30;;
76194;SDS011;64964;48.694;21.206;2022-12-10T04:01:38;11.53;;;5.50;;
76194;SDS011;64964;48.694;21.206;2022-12-10T04:04:04;10.03;;;4.80;;
76194;SDS011;64964;48.694;21.206;2022-12-10T04:06:30;7.75;;;4.85;;
76194;SDS011;64964;48.694;21.206;2022-12-10T04:08:55;11.70;;;5.40;;
76194;SDS011;64964;48.694;21.206;2022-12-10T04:11:20;7.97;;;4.70;;
76194;SDS011;64964;48.694;21.206;2022-12-10T04:13:46;10.00;;;5.03;;
76194;SDS011;64964;48.694;21.206;2022-12-10T04:16:30;7.97;;;4.87;;
76194;SDS011;64964;48.694;21.206;2022-12-10T04:18:58;8.50;;;4.70;;
76194;SDS011;64964;48.694;21.206;2022-12-10T04:21:26;8.95;;;4.88;;
76194;SDS011;64964;48.694;21.206;2022-12-10T04:24:11;10.43;;;5.38;;
76194;SDS011;64964;48.694;21.206;2022-12-10T04:26:57;9.38;;;5.88;;
76194;SDS011;64964;48.694;21.206;2022-12-10T04:29:26;10.03;;;6.00;;
76194;SDS011;64964;48.694;21.206;2022-12-10T04:31:53;12.13;;;5.60;;
76194;SDS011;64964;48.694;21.206;2022-12-10T04:34:20;10.80;;;6.43;;
76194;SDS011;64964;48.694;21.206;2022-12-10T04:36:45;11.83;;;6.23;;
76194;SDS011;64964;48.694;21.206;2022-12-10T04:39:11;9.73;;;6.38;;
76194;SDS011;64964;48.694;21.206;2022-12-10T04:41:39;11.45;;;6.40;;
76194;SDS011;64964;48.694;21.206;2022-12-10T04:44:05;9.57;;;6.13;;
76194;SDS011;64964;48.694;21.206;2022-12-10T04:46:31;10.50;;;6.40;;
76194;SDS011;64964;48.694;21.206;2022-12-10T04:48:56;12.90;;;6.57;;
76194;SDS011;64964;48.694;21.206;2022-12-10T04:51:21;9.77;;;6.13;;
76194;SDS011;64964;48.694;21.206;2022-12-10T04:53:47;10.15;;;6.40;;
76194;SDS011;64964;48.694;21.206;2022-12-10T04:56:12;10.70;;;5.83;;
76194;SDS011;64964;48.694;21.206;2022-12-10T04:58:37;10.40;;;5.93;;
76194;SDS011;64964;48.694;21.206;2022-12-10T05:01:03;9.57;;;6.07;;
76194;SDS011;64964;48.694;21.206;2022-12-10T05:03:30;9.75;;;5.97;;
76194;SDS011;64964;48.694;21.206;2022-12-10T05:05:55;8.70;;;5.30;;
76194;SDS011;64964;48.694;21.206;2022-12-10T05:08:21;10.07;;;5.88;;
76194;SDS011;64964;48.694;21.206;2022-12-10T05:10:46;9.03;;;5.53;;
76194;SDS011;64964;48.694;21.206;2022-12-10T05:13:11;11.13;;;5.67;;
76194;SDS011;64964;48.694;21.206;2022-12-10T05:15:39;10.97;;;5.90;;
76194;SDS011;64964;48.694;21.206;2022-12-10T05:18:05;8.48;;;5.53;;
76194;SDS011;64964;48.694;21.206;2022-12-10T05:20:30;8.13;;;5.30;;
76194;SDS011;64964;48.694;21.206;2022-12-10T05:22:55;8.73;;;5.37;;
76194;SDS011;64964;48.694;21.206;2022-12-10T05:25:39;9.05;;;5.60;;
76194;SDS011;64964;48.694;21.206;2022-12-10T05:28:20;9.05;;;5.47;;
76194;SDS011;64964;48.694;21.206;2022-12-10T05:30:49;8.57;;;5.63;;
76194;SDS011;64964;48.694;21.206;2022-12-10T05:33:15;8.77;;;5.57;;
76194;SDS011;64964;48.694;21.206;2022-12-10T05:35:40;7.47;;;5.20;;
76194;SDS011;64964;48.694;21.206;2022-12-10T05:38:06;9.13;;;5.00;;
76194;SDS011;64964;48.694;21.206;2022-12-10T05:40:34;7.87;;;5.10;;
76194;SDS011;64964;48.694;21.206;2022-12-10T05:43:00;7.95;;;5.25;;
76194;SDS011;64964;48.694;21.206;2022-12-10T05:45:26;8.88;;;5.38;;
76194;SDS011;64964;48.694;21.206;2022-12-10T05:47:51;7.73;;;5.13;;
76194;SDS011;64964;48.694;21.206;2022-12-10T05:50:17;8.20;;;5.37;;
76194;SDS011;64964;48.694;21.206;2022-12-10T05:52:42;9.50;;;5.67;;
76194;SDS011;64964;48.694;21.206;2022-12-10T05:55:08;13.80;;;8.43;;
76194;SDS011;64964;48.694;21.206;2022-12-10T05:57:35;8.57;;;5.85;;
76194;SDS011;64964;48.694;21.206;2022-12-10T06:00:01;7.32;;;4.60;;
76194;SDS011;64964;48.694;21.206;2022-12-10T06:02:27;7.63;;;4.90;;
76194;SDS011;64964;48.694;21.206;2022-12-10T06:04:52;6.83;;;4.90;;
76194;SDS011;64964;48.694;21.206;2022-12-10T06:07:18;6.17;;;4.30;;
76194;SDS011;64964;48.694;21.206;2022-12-10T06:09:43;7.03;;;4.40;;
76194;SDS011;64964;48.694;21.206;2022-12-10T06:12:09;6.10;;;3.77;;
76194;SDS011;64964;48.694;21.206;2022-12-10T06:14:34;6.53;;;3.70;;
76194;SDS011;64964;48.694;21.206;2022-12-10T06:16:59;6.60;;;3.80;;
76194;SDS011;64964;48.694;21.206;2022-12-10T06:19:25;5.57;;;3.60;;
76194;SDS011;64964;48.694;21.206;2022-12-10T06:21:50;8.80;;;4.63;;
76194;SDS011;64964;48.694;21.206;2022-12-10T06:24:15;8.93;;;4.53;;
76194;SDS011;64964;48.694;21.206;2022-12-10T06:26:41;8.40;;;5.00;;
76194;SDS011;64964;48.694;21.206;2022-12-10T06:29:06;7.93;;;5.32;;
76194;SDS011;64964;48.694;21.206;2022-12-10T06:31:31;6.97;;;4.60;;
76194;SDS011;64964;48.694;21.206;2022-12-10T06:33:57;7.70;;;4.57;;
76194;SDS011;64964;48.694;21.206;2022-12-10T06:36:22;8.40;;;4.73;;
76194;SDS011;64964;48.694;21.206;2022-12-10T06:38:48;6.57;;;4.38;;
76194;SDS011;64964;48.694;21.206;2022-12-10T06:41:15;8.83;;;4.63;;
76194;SDS011;64964;48.694;21.206;2022-12-10T06:43:42;7.85;;;4.50;;
76194;SDS011;64964;48.694;21.206;2022-12-10T06:46:08;7.90;;;4.43;;
76194;SDS011;64964;48.694;21.206;2022-12-10T06:48:35;7.60;;;4.53;;
76194;SDS011;64964;48.694;21.206;2022-12-10T06:51:01;6.35;;;4.22;;
76194;SDS011;64964;48.694;21.206;2022-12-10T06:53:27;5.83;;;3.90;;
76194;SDS011;64964;48.694;21.206;2022-12-10T06:55:52;6.07;;;4.30;;
76194;SDS011;64964;48.694;21.206;2022-12-10T06:58:18;7.60;;;4.47;;
76194;SDS011;64964;48.694;21.206;2022-12-10T07:00:43;10.10;;;4.40;;
76194;SDS011;64964;48.694;21.206;2022-12-10T07:03:08;6.13;;;4.10;;
76194;SDS011;64964;48.694;21.206;2022-12-10T07:05:34;6.63;;;4.07;;
76194;SDS011;64964;48.694;21.206;2022-12-10T07:07:59;6.03;;;4.38;;
76194;SDS011;64964;48.694;21.206;2022-12-10T07:10:24;5.43;;;3.87;;
76194;SDS011;64964;48.694;21.206;2022-12-10T07:12:50;4.50;;;3.13;;
76194;SDS011;64964;48.694;21.206;2022-12-10T07:15:15;4.13;;;2.90;;
76194;SDS011;64964;48.694;21.206;2022-12-10T07:17:41;3.10;;;2.50;;
76194;SDS011;64964;48.694;21.206;2022-12-10T07:20:06;2.83;;;2.20;;
76194;SDS011;64964;48.694;21.206;2022-12-10T07:22:32;2.67;;;2.20;;
76194;SDS011;64964;48.694;21.206;2022-12-10T07:24:57;4.50;;;3.47;;
76194;SDS011;64964;48.694;21.206;2022-12-10T07:27:23;4.37;;;3.40;;
76194;SDS011;64964;48.694;21.206;2022-12-10T07:29:48;3.50;;;2.47;;
76194;SDS011;64964;48.694;21.206;2022-12-10T07:32:14;2.93;;;2.20;;
76194;SDS011;64964;48.694;21.206;2022-12-10T07:34:39;2.70;;;2.08;;
76194;SDS011;64964;48.694;21.206;2022-12-10T07:37:04;3.30;;;1.90;;
76194;SDS011;64964;48.694;21.206;2022-12-10T07:39:30;2.90;;;2.00;;
76194;SDS011;64964;48.694;21.206;2022-12-10T07:41:55;2.40;;;2.00;;
76194;SDS011;64964;48.694;21.206;2022-12-10T07:44:24;2.83;;;2.37;;
76194;SDS011;64964;48.694;21.206;2022-12-10T07:46:51;2.95;;;2.00;;
76194;SDS011;64964;48.694;21.206;2022-12-10T07:49:17;2.97;;;1.97;;
76194;SDS011;64964;48.694;21.206;2022-12-10T07:51:47;3.42;;;2.05;;
76194;SDS011;64964;48.694;21.206;2022-12-10T07:54:14;2.05;;;1.73;;
76194;SDS011;64964;48.694;21.206;2022-12-10T07:56:40;2.17;;;1.93;;
76194;SDS011;64964;48.694;21.206;2022-12-10T07:59:05;2.38;;;1.90;;
76194;SDS011;64964;48.694;21.206;2022-12-10T08:01:31;3.63;;;2.20;;
76194;SDS011;64964;48.694;21.206;2022-12-10T08:03:56;3.97;;;2.22;;
76194;SDS011;64964;48.694;21.206;2022-12-10T08:06:22;2.93;;;2.27;;
76194;SDS011;64964;48.694;21.206;2022-12-10T08:08:48;3.58;;;2.42;;
76194;SDS011;64964;48.694;21.206;2022-12-10T08:11:15;3.77;;;2.37;;
76194;SDS011;64964;48.694;21.206;2022-12-10T08:13:42;4.60;;;2.80;;
76194;SDS011;64964;48.694;21.206;2022-12-10T08:16:10;4.30;;;2.88;;
76194;SDS011;64964;48.694;21.206;2022-12-10T08:18:37;4.72;;;3.20;;
76194;SDS011;64964;48.694;21.206;2022-12-10T08:21:06;4.00;;;3.00;;
76194;SDS011;64964;48.694;21.206;2022-12-10T08:23:36;3.53;;;2.83;;
76194;SDS011;64964;48.694;21.206;2022-12-10T08:26:06;6.03;;;3.73;;
76194;SDS011;64964;48.694;21.206;2022-12-10T08:28:33;5.32;;;3.85;;
76194;SDS011;64964;48.694;21.206;2022-12-10T08:30:59;6.13;;;3.60;;
76194;SDS011;64964;48.694;21.206;2022-12-10T08:33:25;5.17;;;3.60;;
76194;SDS011;64964;48.694;21.206;2022-12-10T08:35:51;5.53;;;3.47;;
76194;SDS011;64964;48.694;21.206;2022-12-10T08:38:16;7.47;;;5.53;;
76194;SDS011;64964;48.694;21.206;2022-12-10T08:40:42;6.17;;;4.20;;
76194;SDS011;64964;48.694;21.206;2022-12-10T08:43:07;6.43;;;3.90;;
76194;SDS011;64964;48.694;21.206;2022-12-10T08:45:33;6.03;;;3.60;;
76194;SDS011;64964;48.694;21.206;2022-12-10T08:47:59;4.85;;;3.42;;
76194;SDS011;64964;48.694;21.206;2022-12-10T08:50:26;4.63;;;3.25;;
76194;SDS011;64964;48.694;21.206;2022-12-10T08:52:52;6.50;;;3.67;;
76194;SDS011;64964;48.694;21.206;2022-12-10T08:55:17;6.80;;;3.97;;
76194;SDS011;64964;48.694;21.206;2022-12-10T08:57:42;9.47;;;4.77;;
76194;SDS011;64964;48.694;21.206;2022-12-10T09:00:08;8.67;;;4.63;;
76194;SDS011;64964;48.694;21.206;2022-12-10T09:02:34;5.78;;;4.30;;
76194;SDS011;64964;48.694;21.206;2022-12-10T09:04:59;5.67;;;4.37;;
76194;SDS011;64964;48.694;21.206;2022-12-10T09:07:25;7.80;;;4.50;;
76194;SDS011;64964;48.694;21.206;2022-12-10T09:09:51;6.23;;;4.37;;
76194;SDS011;64964;48.694;21.206;2022-12-10T09:12:17;7.88;;;4.18;;
76194;SDS011;64964;48.694;21.206;2022-12-10T09:14:42;7.20;;;4.80;;
76194;SDS011;64964;48.694;21.206;2022-12-10T09:17:08;6.03;;;4.17;;
76194;SDS011;64964;48.694;21.206;2022-12-10T09:19:33;6.90;;;4.63;;
76194;SDS011;64964;48.694;21.206;2022-12-10T09:21:59;5.60;;;3.70;;
76194;SDS011;64964;48.694;21.206;2022-12-10T09:24:25;7.30;;;4.43;;
76194;SDS011;64964;48.694;21.206;2022-12-10T09:26:50;6.60;;;4.17;;
76194;SDS011;64964;48.694;21.206;2022-12-10T09:29:16;6.90;;;4.17;;
76194;SDS011;64964;48.694;21.206;2022-12-10T09:31:41;7.37;;;4.50;;
76194;SDS011;64964;48.694;21.206;2022-12-10T09:34:07;5.53;;;3.85;;
76194;SDS011;64964;48.694;21.206;2022-12-10T09:36:33;5.83;;;4.10;;
76194;SDS011;64964;48.694;21.206;2022-12-10T09:38:58;5.45;;;3.47;;
76194;SDS011;64964;48.694;21.206;2022-12-10T09:46:48;8.10;;;4.63;;
76194;SDS011;64964;48.694;21.206;2022-12-10T09:51:54;7.93;;;4.07;;
76194;SDS011;64964;48.694;21.206;2022-12-10T09:56:50;7.65;;;4.45;;
76194;SDS011;64964;48.694;21.206;2022-12-10T09:59:30;7.93;;;4.60;;
76194;SDS011;64964;48.694;21.206;2022-12-10T10:04:52;6.90;;;4.57;;
76194;SDS011;64964;48.694;21.206;2022-12-10T10:07:21;6.95;;;4.00;;
76194;SDS011;64964;48.694;21.206;2022-12-10T10:09:50;7.22;;;4.30;;
76194;SDS011;64964;48.694;21.206;2022-12-10T10:12:20;7.00;;;4.57;;
76194;SDS011;64964;48.694;21.206;2022-12-10T10:14:45;6.60;;;4.10;;
76194;SDS011;64964;48.694;21.206;2022-12-10T10:17:16;5.93;;;4.13;;
76194;SDS011;64964;48.694;21.206;2022-12-10T10:19:52;7.97;;;4.43;;
76194;SDS011;64964;48.694;21.206;2022-12-10T10:22:17;7.33;;;4.27;;
76194;SDS011;64964;48.694;21.206;2022-12-10T10:24:44;5.97;;;4.23;;
76194;SDS011;64964;48.694;21.206;2022-12-10T10:27:17;7.50;;;4.10;;
76194;SDS011;64964;48.694;21.206;2022-12-10T10:29:49;8.20;;;4.20;;
76194;SDS011;64964;48.694;21.206;2022-12-10T10:32:20;6.18;;;4.28;;
76194;SDS011;64964;48.694;21.206;2022-12-10T10:34:57;7.15;;;4.30;;
76194;SDS011;64964;48.694;21.206;2022-12-10T10:37:28;5.63;;;4.17;;
76194;SDS011;64964;48.694;21.206;2022-12-10T10:39:56;6.55;;;3.85;;
76194;SDS011;64964;48.694;21.206;2022-12-10T10:42:34;5.97;;;4.30;;
76194;SDS011;64964;48.694;21.206;2022-12-10T10:45:06;5.35;;;3.67;;
76194;SDS011;64964;48.694;21.206;2022-12-10T10:53:23;9.10;;;5.78;;
76194;SDS011;64964;48.694;21.206;2022-12-10T10:55:49;9.05;;;6.80;;
76194;SDS011;64964;48.694;21.206;2022-12-10T10:58:17;5.93;;;4.07;;
76194;SDS011;64964;48.694;21.206;2022-12-10T11:00:52;6.10;;;4.13;;
76194;SDS011;64964;48.694;21.206;2022-12-10T11:03:19;7.70;;;5.20;;
76194;SDS011;64964;48.694;21.206;2022-12-10T11:05:46;7.68;;;5.07;;
76194;SDS011;64964;48.694;21.206;2022-12-10T11:08:16;6.57;;;4.47;;
76194;SDS011;64964;48.694;21.206;2022-12-10T11:10:49;5.82;;;4.07;;
76194;SDS011;64964;48.694;21.206;2022-12-10T11:13:24;5.68;;;3.15;;
76194;SDS011;64964;48.694;21.206;2022-12-10T11:16:00;7.93;;;4.40;;
76194;SDS011;64964;48.694;21.206;2022-12-10T11:23:39;5.88;;;4.00;;
76194;SDS011;64964;48.694;21.206;2022-12-10T11:31:52;5.05;;;3.83;;
76194;SDS011;64964;48.694;21.206;2022-12-10T11:48:39;5.87;;;4.20;;
76194;SDS011;64964;48.694;21.206;2022-12-10T11:54:04;5.28;;;3.45;;
76194;SDS011;64964;48.694;21.206;2022-12-10T11:56:38;5.30;;;4.00;;
76194;SDS011;64964;48.694;21.206;2022-12-10T12:04:44;7.82;;;7.03;;
76194;SDS011;64964;48.694;21.206;2022-12-10T12:16:06;7.70;;;6.00;;
76194;SDS011;64964;48.694;21.206;2022-12-10T12:18:39;6.05;;;3.90;;
76194;SDS011;64964;48.694;21.206;2022-12-10T12:21:11;6.07;;;4.57;;
76194;SDS011;64964;48.694;21.206;2022-12-10T12:26:10;6.88;;;4.80;;
76194;SDS011;64964;48.694;21.206;2022-12-10T12:28:46;7.83;;;4.93;;
76194;SDS011;64964;48.694;21.206;2022-12-10T12:31:25;5.97;;;3.20;;
76194;SDS011;64964;48.694;21.206;2022-12-10T12:34:17;5.10;;;3.35;;
76194;SDS011;64964;48.694;21.206;2022-12-10T12:36:46;5.60;;;3.80;;
76194;SDS011;64964;48.694;21.206;2022-12-10T12:39:22;5.60;;;4.30;;
76194;SDS011;64964;48.694;21.206;2022-12-10T12:47:16;5.85;;;3.42;;
76194;SDS011;64964;48.694;21.206;2022-12-10T12:49:51;6.28;;;3.80;;
76194;SDS011;64964;48.694;21.206;2022-12-10T12:54:43;5.80;;;3.80;;
76194;SDS011;64964;48.694;21.206;2022-12-10T12:57:22;5.80;;;3.83;;
76194;SDS011;64964;48.694;21.206;2022-12-10T13:00:00;6.78;;;4.25;;
76194;SDS011;64964;48.694;21.206;2022-12-10T13:05:12;8.32;;;5.00;;
76194;SDS011;64964;48.694;21.206;2022-12-10T13:08:20;7.60;;;4.67;;
76194;SDS011;64964;48.694;21.206;2022-12-10T13:32:22;6.28;;;4.00;;
76194;SDS011;64964;48.694;21.206;2022-12-10T13:40:15;5.90;;;4.50;;
76194;SDS011;64964;48.694;21.206;2022-12-10T13:46:21;7.15;;;3.90;;
76194;SDS011;64964;48.694;21.206;2022-12-10T13:49:03;6.30;;;4.60;;
76194;SDS011;64964;48.694;21.206;2022-12-10T13:54:36;6.25;;;4.20;;
76194;SDS011;64964;48.694;21.206;2022-12-10T14:00:08;6.13;;;4.20;;
76194;SDS011;64964;48.694;21.206;2022-12-10T14:07:23;7.15;;;4.45;;
76194;SDS011;64964;48.694;21.206;2022-12-10T14:09:52;7.32;;;4.28;;
76194;SDS011;64964;48.694;21.206;2022-12-10T14:12:30;6.33;;;4.00;;
76194;SDS011;64964;48.694;21.206;2022-12-10T14:15:01;5.55;;;3.63;;
76194;SDS011;64964;48.694;21.206;2022-12-10T14:17:34;7.00;;;4.80;;
76194;SDS011;64964;48.694;21.206;2022-12-10T14:20:03;8.13;;;4.50;;
76194;SDS011;64964;48.694;21.206;2022-12-10T14:25:06;5.13;;;3.70;;
76194;SDS011;64964;48.694;21.206;2022-12-10T14:27:37;6.03;;;3.65;;
76194;SDS011;64964;48.694;21.206;2022-12-10T14:30:24;5.82;;;3.80;;
76194;SDS011;64964;48.694;21.206;2022-12-10T14:32:52;5.60;;;3.65;;
76194;SDS011;64964;48.694;21.206;2022-12-10T14:35:20;6.57;;;3.90;;
76194;SDS011;64964;48.694;21.206;2022-12-10T14:37:48;6.40;;;3.65;;
76194;SDS011;64964;48.694;21.206;2022-12-10T14:40:19;5.53;;;3.53;;
76194;SDS011;64964;48.694;21.206;2022-12-10T14:42:52;6.25;;;3.80;;
76194;SDS011;64964;48.694;21.206;2022-12-10T14:45:25;5.75;;;3.80;;
76194;SDS011;64964;48.694;21.206;2022-12-10T14:47:56;6.67;;;3.60;;
76194;SDS011;64964;48.694;21.206;2022-12-10T14:50:25;6.03;;;3.35;;
76194;SDS011;64964;48.694;21.206;2022-12-10T14:52:53;6.00;;;3.97;;
76194;SDS011;64964;48.694;21.206;2022-12-10T14:55:19;5.00;;;3.67;;
76194;SDS011;64964;48.694;21.206;2022-12-10T15:00:24;9.65;;;6.65;;
76194;SDS011;64964;48.694;21.206;2022-12-10T15:02:59;8.10;;;4.30;;
76194;SDS011;64964;48.694;21.206;2022-12-10T15:05:36;6.78;;;4.43;;
76194;SDS011;64964;48.694;21.206;2022-12-10T15:08:03;6.82;;;4.65;;
76194;SDS011;64964;48.694;21.206;2022-12-10T15:10:38;6.60;;;4.40;;
76194;SDS011;64964;48.694;21.206;2022-12-10T15:13:05;6.03;;;4.20;;
76194;SDS011;64964;48.694;21.206;2022-12-10T15:15:38;5.70;;;4.30;;
76194;SDS011;64964;48.694;21.206;2022-12-10T15:20:37;6.40;;;4.13;;
76194;SDS011;64964;48.694;21.206;2022-12-10T15:25:58;6.10;;;4.03;;
76194;SDS011;64964;48.694;21.206;2022-12-10T15:28:30;7.75;;;5.07;;
76194;SDS011;64964;48.694;21.206;2022-12-10T15:31:09;8.43;;;5.72;;
76194;SDS011;64964;48.694;21.206;2022-12-10T15:33:42;8.23;;;5.13;;
76194;SDS011;64964;48.694;21.206;2022-12-10T15:41:54;11.20;;;5.88;;
76194;SDS011;64964;48.694;21.206;2022-12-10T15:49:27;7.80;;;5.23;;
76194;SDS011;64964;48.694;21.206;2022-12-10T15:51:53;7.68;;;4.78;;
76194;SDS011;64964;48.694;21.206;2022-12-10T15:57:23;7.80;;;4.67;;
76194;SDS011;64964;48.694;21.206;2022-12-10T15:59:52;9.13;;;4.85;;
76194;SDS011;64964;48.694;21.206;2022-12-10T16:02:34;6.40;;;4.10;;
76194;SDS011;64964;48.694;21.206;2022-12-10T16:05:20;6.82;;;4.30;;
76194;SDS011;64964;48.694;21.206;2022-12-10T16:07:48;6.50;;;4.32;;
76194;SDS011;64964;48.694;21.206;2022-12-10T16:10:16;6.50;;;4.57;;
76194;SDS011;64964;48.694;21.206;2022-12-10T16:12:43;8.68;;;4.63;;
76194;SDS011;64964;48.694;21.206;2022-12-10T16:15:14;6.97;;;4.22;;
76194;SDS011;64964;48.694;21.206;2022-12-10T16:17:43;6.15;;;4.13;;
76194;SDS011;64964;48.694;21.206;2022-12-10T16:22:39;10.43;;;7.57;;
76194;SDS011;64964;48.694;21.206;2022-12-10T16:25:05;9.03;;;5.60;;
76194;SDS011;64964;48.694;21.206;2022-12-10T16:27:31;9.15;;;5.32;;
76194;SDS011;64964;48.694;21.206;2022-12-10T16:29:57;8.98;;;6.25;;
76194;SDS011;64964;48.694;21.206;2022-12-10T16:32:23;10.00;;;6.43;;
76194;SDS011;64964;48.694;21.206;2022-12-10T16:34:48;7.73;;;4.93;;
76194;SDS011;64964;48.694;21.206;2022-12-10T16:37:15;11.00;;;5.47;;
76194;SDS011;64964;48.694;21.206;2022-12-10T16:39:40;8.88;;;5.00;;
76194;SDS011;64964;48.694;21.206;2022-12-10T16:42:08;8.23;;;5.17;;
76194;SDS011;64964;48.694;21.206;2022-12-10T16:44:35;7.20;;;4.93;;
76194;SDS011;64964;48.694;21.206;2022-12-10T16:47:01;6.83;;;4.97;;
76194;SDS011;64964;48.694;21.206;2022-12-10T16:49:26;7.70;;;5.15;;
76194;SDS011;64964;48.694;21.206;2022-12-10T16:51:51;7.00;;;4.17;;
76194;SDS011;64964;48.694;21.206;2022-12-10T16:54:17;8.63;;;4.60;;
76194;SDS011;64964;48.694;21.206;2022-12-10T16:56:43;8.75;;;5.00;;
76194;SDS011;64964;48.694;21.206;2022-12-10T16:59:08;7.63;;;4.80;;
76194;SDS011;64964;48.694;21.206;2022-12-10T17:01:35;7.25;;;4.15;;
76194;SDS011;64964;48.694;21.206;2022-12-10T17:04:01;7.70;;;5.20;;
76194;SDS011;64964;48.694;21.206;2022-12-10T17:06:28;8.23;;;4.90;;
76194;SDS011;64964;48.694;21.206;2022-12-10T17:08:53;8.77;;;4.57;;
76194;SDS011;64964;48.694;21.206;2022-12-10T17:11:20;9.33;;;5.17;;
76194;SDS011;64964;48.694;21.206;2022-12-10T17:16:41;8.77;;;4.70;;
76194;SDS011;64964;48.694;21.206;2022-12-10T17:19:08;8.37;;;5.23;;
76194;SDS011;64964;48.694;21.206;2022-12-10T17:21:36;8.43;;;4.80;;
76194;SDS011;64964;48.694;21.206;2022-12-10T17:24:02;7.93;;;4.70;;
76194;SDS011;64964;48.694;21.206;2022-12-10T17:26:28;8.03;;;4.90;;
76194;SDS011;64964;48.694;21.206;2022-12-10T17:29:03;9.23;;;5.05;;